createdAt,value
2022-08-07T00:00:55.078Z,19.13
2022-08-07T00:03:04.605Z,19.10
2022-08-07T00:05:10.600Z,19.06
2022-08-07T00:07:15.923Z,19.03
2022-08-07T00:09:22.562Z,19.02
2022-08-07T00:11:29.978Z,18.98
2022-08-07T00:13:44.737Z,18.94
2022-08-07T00:15:53.231Z,18.95
2022-08-07T00:17:58.136Z,18.95
2022-08-07T00:20:03.597Z,18.88
2022-08-07T00:22:08.736Z,18.87
2022-08-07T00:24:17.026Z,18.86
2022-08-07T00:26:59.279Z,18.86
2022-08-07T00:28:55.694Z,18.88
2022-08-07T00:31:12.255Z,18.89
2022-08-07T00:33:17.424Z,18.86
2022-08-07T00:35:23.439Z,18.86
2022-08-07T00:37:29.425Z,18.83
2022-08-07T00:39:54.780Z,18.84
2022-08-07T00:42:05.001Z,18.87
2022-08-07T00:44:10.379Z,18.84
2022-08-07T00:46:22.897Z,18.86
2022-08-07T00:48:32.012Z,18.83
2022-08-07T00:50:51.092Z,18.76
2022-08-07T00:52:56.633Z,18.73
2022-08-07T00:55:04.665Z,18.76
2022-08-07T00:57:15.987Z,18.76
2022-08-07T00:59:32.466Z,18.76
2022-08-07T01:01:44.339Z,18.75
2022-08-07T01:03:55.449Z,18.75
2022-08-07T01:06:03.249Z,18.72
2022-08-07T01:08:08.998Z,18.72
2022-08-07T01:10:14.043Z,18.74
2022-08-07T01:12:29.758Z,18.75
2022-08-07T01:14:37.040Z,18.77
2022-08-07T01:16:47.341Z,18.78
2022-08-07T01:18:53.626Z,18.77
2022-08-07T01:21:24.391Z,18.76
2022-08-07T01:23:38.645Z,18.75
2022-08-07T01:25:55.491Z,18.74
2022-08-07T01:28:02.389Z,18.72
2022-08-07T01:30:09.626Z,18.71
2022-08-07T01:32:16.239Z,18.70
2022-08-07T01:34:30.956Z,18.68
2022-08-07T01:36:40.862Z,18.70
2022-08-07T01:38:51.329Z,18.69
2022-08-07T01:41:02.496Z,18.67
2022-08-07T01:43:07.858Z,18.65
2022-08-07T01:45:17.817Z,18.66
2022-08-07T01:48:18.500Z,18.62
2022-08-07T01:49:54.728Z,18.49
2022-08-07T01:52:07.391Z,18.40
2022-08-07T01:54:33.287Z,18.40
2022-08-07T01:56:50.802Z,18.39
2022-08-07T01:59:01.108Z,18.40
2022-08-07T02:01:25.572Z,18.31
2022-08-07T02:03:50.204Z,18.23
2022-08-07T02:06:02.316Z,18.14
2022-08-07T02:08:20.117Z,18.13
2022-08-07T02:10:30.688Z,18.14
2022-08-07T02:12:41.226Z,18.14
2022-08-07T02:15:00.598Z,18.15
2022-08-07T02:17:34.287Z,18.16
2022-08-07T02:20:04.322Z,18.11
2022-08-07T02:22:07.904Z,18.08
2022-08-07T02:24:17.931Z,18.08
2022-08-07T02:26:32.775Z,18.06
2022-08-07T02:28:43.143Z,18.05
2022-08-07T02:30:51.082Z,18.05
2022-08-07T02:33:00.587Z,18.07
2022-08-07T02:35:20.388Z,18.04
2022-08-07T02:37:46.040Z,18.03
2022-08-07T02:40:11.851Z,18.02
2022-08-07T02:42:24.796Z,18.00
2022-08-07T02:44:34.595Z,17.97
2022-08-07T02:46:46.781Z,17.97
2022-08-07T02:48:59.187Z,17.97
2022-08-07T02:51:42.829Z,17.99
2022-08-07T02:53:42.757Z,17.93
2022-08-07T02:56:03.568Z,17.93
2022-08-07T02:58:16.271Z,17.86
2022-08-07T03:00:30.114Z,17.81
2022-08-07T03:02:37.889Z,17.81
2022-08-07T03:05:04.084Z,17.79
2022-08-07T03:07:12.605Z,17.77
2022-08-07T03:09:43.773Z,17.76
2022-08-07T03:11:51.917Z,17.72
2022-08-07T03:14:06.407Z,17.58
2022-08-07T03:16:11.666Z,17.57
2022-08-07T03:18:20.246Z,17.50
2022-08-07T03:20:29.998Z,17.49
2022-08-07T03:22:35.511Z,17.48
2022-08-07T03:24:40.475Z,17.45
2022-08-07T03:26:59.023Z,17.42
2022-08-07T03:29:11.141Z,17.39
2022-08-07T03:31:24.602Z,17.33
2022-08-07T03:33:40.207Z,17.27
2022-08-07T03:35:50.398Z,17.18
2022-08-07T03:38:02.115Z,17.14
2022-08-07T03:40:15.682Z,17.14
2022-08-07T03:42:24.651Z,17.14
2022-08-07T03:44:34.564Z,17.12
2022-08-07T03:47:10.971Z,17.09
2022-08-07T03:49:07.434Z,17.06
2022-08-07T03:51:20.757Z,17.01
2022-08-07T03:54:01.662Z,17.01
2022-08-07T03:56:03.927Z,17.00
2022-08-07T03:59:05.370Z,17.02
2022-08-07T04:00:46.618Z,16.99
2022-08-07T04:02:59.421Z,16.99
2022-08-07T04:05:10.690Z,17.00
2022-08-07T04:07:18.872Z,16.99
2022-08-07T04:09:44.696Z,16.91
2022-08-07T04:12:24.145Z,16.90
2022-08-07T04:14:37.850Z,16.94
2022-08-07T04:16:58.825Z,16.86
2022-08-07T04:19:12.750Z,16.87
2022-08-07T04:21:22.312Z,16.82
2022-08-07T04:23:43.383Z,16.80
2022-08-07T04:25:56.347Z,16.81
2022-08-07T04:28:02.849Z,16.84
2022-08-07T04:30:21.404Z,16.88
2022-08-07T04:32:44.923Z,16.93
2022-08-07T04:34:55.177Z,16.92
2022-08-07T04:37:00.166Z,16.91
2022-08-07T04:39:05.295Z,16.91
2022-08-07T04:41:19.156Z,16.94
2022-08-07T04:44:11.920Z,16.96
2022-08-07T04:46:12.390Z,16.94
2022-08-07T04:48:33.153Z,16.93
2022-08-07T04:50:42.337Z,16.96
2022-08-07T04:52:56.450Z,17.01
2022-08-07T04:55:15.021Z,17.08
2022-08-07T04:58:09.708Z,17.12
2022-08-07T05:00:30.083Z,17.09
2022-08-07T05:02:49.385Z,17.05
2022-08-07T05:05:02.906Z,17.02
2022-08-07T05:07:48.286Z,16.90
2022-08-07T05:10:02.399Z,16.88
2022-08-07T05:12:26.520Z,16.90
2022-08-07T05:14:55.794Z,16.85
2022-08-07T05:17:11.943Z,16.84
2022-08-07T05:19:32.590Z,16.86
2022-08-07T05:21:59.055Z,16.91
2022-08-07T05:24:07.509Z,16.96
2022-08-07T05:26:24.118Z,17.03
2022-08-07T05:28:40.470Z,17.07
2022-08-07T05:30:49.032Z,17.09
2022-08-07T05:32:55.976Z,17.12
2022-08-07T05:35:07.639Z,17.11
2022-08-07T05:37:13.503Z,17.16
2022-08-07T05:40:14.071Z,17.15
2022-08-07T05:42:05.322Z,17.26
2022-08-07T05:44:16.645Z,17.37
2022-08-07T05:46:35.109Z,17.52
2022-08-07T05:48:59.062Z,17.57
2022-08-07T05:51:10.041Z,17.57
2022-08-07T05:54:12.381Z,17.62
2022-08-07T05:56:02.030Z,17.64
2022-08-07T05:58:08.903Z,17.78
2022-08-07T06:00:17.850Z,18.06
2022-08-07T06:02:38.310Z,18.35
2022-08-07T06:04:51.830Z,18.53
2022-08-07T06:07:04.434Z,18.63
2022-08-07T06:09:12.297Z,18.62
2022-08-07T06:11:22.019Z,18.62
2022-08-07T06:14:10.529Z,18.63
2022-08-07T06:15:54.943Z,18.59
2022-08-07T06:18:05.439Z,18.60
2022-08-07T06:20:32.175Z,18.63
2022-08-07T06:23:01.874Z,18.65
2022-08-07T06:25:14.534Z,18.63
2022-08-07T06:27:44.350Z,18.67
2022-08-07T06:29:51.824Z,18.72
2022-08-07T06:31:57.746Z,18.78
2022-08-07T06:34:02.653Z,18.78
2022-08-07T06:36:13.152Z,18.86
2022-08-07T06:38:30.461Z,18.94
2022-08-07T06:40:45.814Z,19.05
2022-08-07T06:42:52.430Z,19.13
2022-08-07T06:45:18.561Z,19.22
2022-08-07T06:47:38.808Z,19.25
2022-08-07T06:49:58.675Z,19.22
2022-08-07T06:52:11.846Z,19.36
2022-08-07T06:55:31.569Z,19.45
2022-08-07T06:56:50.675Z,19.53
2022-08-07T07:00:14.046Z,19.68
2022-08-07T07:01:43.922Z,19.76
2022-08-07T07:04:07.021Z,19.77
2022-08-07T07:06:23.916Z,19.75
2022-08-07T07:08:33.928Z,19.84
2022-08-07T07:10:47.435Z,19.92
2022-08-07T07:13:04.697Z,20.01
2022-08-07T07:15:23.569Z,20.09
2022-08-07T07:17:39.156Z,20.26
2022-08-07T07:19:57.688Z,20.41
2022-08-07T07:22:34.431Z,20.54
2022-08-07T07:24:30.137Z,20.61
2022-08-07T07:26:51.711Z,20.71
2022-08-07T07:29:38.413Z,20.68
2022-08-07T07:31:30.558Z,20.72
2022-08-07T07:33:56.407Z,20.87
2022-08-07T07:36:05.355Z,20.98
2022-08-07T07:38:21.315Z,21.12
2022-08-07T07:40:27.064Z,21.21
2022-08-07T07:42:36.946Z,21.20
2022-08-07T07:44:49.650Z,21.25
2022-08-07T07:47:04.325Z,21.31
2022-08-07T07:50:36.640Z,21.28
2022-08-07T07:51:58.112Z,21.40
2022-08-07T07:54:04.937Z,21.56
2022-08-07T07:56:12.109Z,21.71
2022-08-07T07:58:21.169Z,21.84
2022-08-07T08:00:31.469Z,22.01
2022-08-07T08:03:01.168Z,22.13
2022-08-07T08:05:11.522Z,22.23
2022-08-07T08:07:20.385Z,22.28
2022-08-07T08:09:29.315Z,22.37
2022-08-07T08:11:59.970Z,22.47
2022-08-07T08:14:02.833Z,22.56
2022-08-07T08:16:12.750Z,22.66
2022-08-07T08:18:19.520Z,22.71
2022-08-07T08:20:31.801Z,22.71
2022-08-07T08:22:58.354Z,22.66
2022-08-07T08:25:25.063Z,22.73
2022-08-07T08:27:57.252Z,22.83
2022-08-07T08:30:17.310Z,22.93
2022-08-07T08:32:38.202Z,22.98
2022-08-07T08:34:46.131Z,22.98
2022-08-07T08:36:57.571Z,23.05
2022-08-07T08:39:06.528Z,23.05
2022-08-07T08:41:20.315Z,23.05
2022-08-07T08:43:42.112Z,23.19
2022-08-07T08:45:59.261Z,23.13
2022-08-07T08:48:11.731Z,23.25
2022-08-07T08:50:28.583Z,23.28
2022-08-07T08:52:53.928Z,23.32
2022-08-07T08:55:07.596Z,23.38
2022-08-07T08:57:22.373Z,23.49
2022-08-07T08:59:42.334Z,23.43
2022-08-07T09:02:03.333Z,23.46
2022-08-07T09:04:18.920Z,23.55
2022-08-07T09:06:42.671Z,23.65
2022-08-07T09:09:02.981Z,23.68
2022-08-07T09:11:24.999Z,23.76
2022-08-07T09:13:57.633Z,23.89
2022-08-07T09:16:25.686Z,23.99
2022-08-07T09:18:58.871Z,24.10
2022-08-07T09:21:57.749Z,24.12
2022-08-07T09:24:30.925Z,23.94
2022-08-07T09:26:30.168Z,23.87
2022-08-07T09:30:05.651Z,23.75
2022-08-07T09:31:13.464Z,23.63
2022-08-07T09:33:52.499Z,23.77
2022-08-07T09:36:10.038Z,23.79
2022-08-07T09:38:25.337Z,23.95
2022-08-07T09:40:38.623Z,24.05
2022-08-07T09:42:54.210Z,24.18
2022-08-07T09:47:49.909Z,24.27
2022-08-07T09:47:59.119Z,24.32
2022-08-07T09:50:20.069Z,24.27
2022-08-07T09:52:37.695Z,24.36
2022-08-07T09:54:47.997Z,24.41
2022-08-07T09:57:24.604Z,24.42
2022-08-07T10:00:00.553Z,24.38
2022-08-07T10:02:37.612Z,24.37
2022-08-07T10:05:12.688Z,24.43
2022-08-07T10:07:53.603Z,24.58
2022-08-07T10:10:21.827Z,24.67
2022-08-07T10:12:53.207Z,24.70
2022-08-07T10:15:28.658Z,24.74
2022-08-07T10:18:00.912Z,24.68
2022-08-07T10:20:21.850Z,24.63
2022-08-07T10:22:53.575Z,24.46
2022-08-07T10:25:20.810Z,24.39
2022-08-07T10:27:56.353Z,24.55
2022-08-07T10:30:12.143Z,24.63
2022-08-07T10:32:52.911Z,24.76
2022-08-07T10:35:14.972Z,24.84
2022-08-07T10:37:59.991Z,24.83
2022-08-07T10:40:13.914Z,24.79
2022-08-07T10:42:35.202Z,24.70
2022-08-07T10:44:50.849Z,24.60
2022-08-07T10:47:14.110Z,24.69
2022-08-07T10:49:27.508Z,24.68
2022-08-07T10:52:13.021Z,24.72
2022-08-07T10:54:20.556Z,24.68
2022-08-07T10:56:43.791Z,24.74
2022-08-07T10:59:09.848Z,24.92
2022-08-07T11:01:35.521Z,24.99
2022-08-07T11:04:16.674Z,24.94
2022-08-07T11:06:32.497Z,24.90
2022-08-07T11:08:46.655Z,24.92
2022-08-07T11:11:00.139Z,24.95
2022-08-07T11:14:42.090Z,25.02
2022-08-07T11:15:43.572Z,25.04
2022-08-07T11:18:05.892Z,25.05
2022-08-07T11:20:22.460Z,25.01
2022-08-07T11:22:44.086Z,24.98
2022-08-07T11:25:06.585Z,24.94
2022-08-07T11:27:20.735Z,24.99
2022-08-07T11:29:53.877Z,24.89
2022-08-07T11:32:25.385Z,24.95
2022-08-07T11:34:42.394Z,25.08
2022-08-07T11:37:00.400Z,25.20
2022-08-07T11:39:14.636Z,25.23
2022-08-07T11:41:28.292Z,25.24
2022-08-07T11:44:10.952Z,25.21
2022-08-07T11:46:36.723Z,25.24
2022-08-07T11:49:50.195Z,25.36
2022-08-07T11:51:46.623Z,25.35
2022-08-07T11:54:01.764Z,25.41
2022-08-07T11:56:27.028Z,25.53
2022-08-07T11:58:44.134Z,25.59
2022-08-07T12:01:06.647Z,25.61
2022-08-07T12:03:41.441Z,25.70
2022-08-07T12:06:37.057Z,25.75
2022-08-07T12:08:36.133Z,25.66
2022-08-07T12:10:48.151Z,25.68
2022-08-07T12:13:17.029Z,25.73
2022-08-07T12:15:58.018Z,25.81
2022-08-07T12:18:01.048Z,25.86
2022-08-07T12:20:30.135Z,25.96
2022-08-07T12:22:56.412Z,26.06
2022-08-07T12:26:21.399Z,26.09
2022-08-07T12:28:08.690Z,26.00
2022-08-07T12:30:16.034Z,25.99
2022-08-07T12:32:30.599Z,26.02
2022-08-07T12:34:39.137Z,25.99
2022-08-07T12:36:49.436Z,25.99
2022-08-07T12:38:57.620Z,26.04
2022-08-07T12:41:05.669Z,26.06
2022-08-07T12:44:04.406Z,26.09
2022-08-07T12:45:52.754Z,26.10
2022-08-07T12:48:05.261Z,26.09
2022-08-07T12:50:40.097Z,25.96
2022-08-07T12:52:54.373Z,25.92
2022-08-07T12:55:09.442Z,25.83
2022-08-07T12:57:18.774Z,25.83
2022-08-07T12:59:32.978Z,25.76
2022-08-07T13:01:53.808Z,25.80
2022-08-07T13:04:19.005Z,25.82
2022-08-07T13:07:01.125Z,25.93
2022-08-07T13:10:19.737Z,25.96
2022-08-07T13:12:01.795Z,25.95
2022-08-07T13:14:18.488Z,25.92
2022-08-07T13:16:27.480Z,25.89
2022-08-07T13:18:44.606Z,25.89
2022-08-07T13:20:55.608Z,26.01
2022-08-07T13:24:00.151Z,26.19
2022-08-07T13:25:43.280Z,26.26
2022-08-07T13:28:12.433Z,26.29
2022-08-07T13:30:39.837Z,26.28
2022-08-07T13:32:51.683Z,26.40
2022-08-07T13:35:08.438Z,26.58
2022-08-07T13:37:21.808Z,26.73
2022-08-07T13:40:33.806Z,26.80
2022-08-07T13:42:00.985Z,26.78
2022-08-07T13:44:10.385Z,26.92
2022-08-07T13:46:24.844Z,27.01
2022-08-07T13:48:38.634Z,26.90
2022-08-07T13:51:00.307Z,26.95
2022-08-07T13:53:08.094Z,27.13
2022-08-07T13:55:26.391Z,27.25
2022-08-07T13:57:38.235Z,27.25
2022-08-07T13:59:54.838Z,27.36
2022-08-07T14:02:08.442Z,27.45
2022-08-07T14:04:15.645Z,27.51
2022-08-07T14:06:21.732Z,27.60
2022-08-07T14:08:28.198Z,27.58
2022-08-07T14:10:42.242Z,27.76
2022-08-07T14:12:56.114Z,27.92
2022-08-07T14:15:08.832Z,28.11
2022-08-07T14:18:12.688Z,28.26
2022-08-07T14:20:39.160Z,28.27
2022-08-07T14:22:34.644Z,28.48
2022-08-07T14:24:43.987Z,28.53
2022-08-07T14:26:53.760Z,28.69
2022-08-07T14:30:05.138Z,28.79
2022-08-07T14:31:42.741Z,28.75
2022-08-07T14:33:56.971Z,28.94
2022-08-07T14:36:06.442Z,29.07
2022-08-07T14:38:26.195Z,29.10
2022-08-07T14:40:38.493Z,29.19
2022-08-07T14:43:01.218Z,29.21
2022-08-07T14:45:21.294Z,29.10
2022-08-07T14:47:29.292Z,29.23
2022-08-07T14:49:57.039Z,29.27
2022-08-07T14:54:35.679Z,29.36
2022-08-07T14:56:44.534Z,29.32
2022-08-07T14:58:55.317Z,29.44
2022-08-07T15:01:21.501Z,29.54
2022-08-07T15:03:52.599Z,29.55
2022-08-07T15:08:32.382Z,29.66
2022-08-07T15:10:40.287Z,29.80
2022-08-07T15:13:12.280Z,29.96
2022-08-07T15:15:26.038Z,30.07
2022-08-07T15:17:55.271Z,30.17
2022-08-07T15:20:33.999Z,30.27
2022-08-07T15:22:33.655Z,30.38
2022-08-07T15:25:16.312Z,30.55
2022-08-07T15:27:17.649Z,30.66
2022-08-07T15:30:10.163Z,30.65
2022-08-07T15:32:01.578Z,30.65
2022-08-07T15:39:10.433Z,30.82
2022-08-07T15:41:23.771Z,30.93
2022-08-07T15:43:53.154Z,31.20
2022-08-07T15:48:29.830Z,31.45
2022-08-07T15:51:08.276Z,31.43
2022-08-07T15:53:11.731Z,31.25
2022-08-07T15:55:23.254Z,31.28
2022-08-07T15:57:54.184Z,31.28
2022-08-07T16:00:08.471Z,30.98
2022-08-07T16:02:17.442Z,31.04
2022-08-07T16:04:32.095Z,31.35
2022-08-07T16:06:42.287Z,31.39
2022-08-07T16:08:50.073Z,31.25
2022-08-07T16:10:59.829Z,31.25
2022-08-07T16:13:59.438Z,31.16
2022-08-07T16:16:43.044Z,31.01
2022-08-07T16:18:49.465Z,30.79
2022-08-07T16:22:03.517Z,30.86
2022-08-07T16:23:54.655Z,30.64
2022-08-07T16:26:14.826Z,30.30
2022-08-07T16:30:07.734Z,30.08
2022-08-07T16:31:09.965Z,29.63
2022-08-07T16:34:02.104Z,29.40
2022-08-07T16:35:52.300Z,29.18
2022-08-07T16:38:15.292Z,28.70
2022-08-07T16:41:05.753Z,28.48
2022-08-07T16:44:03.728Z,28.26
2022-08-07T16:47:06.008Z,28.12
2022-08-07T16:50:28.021Z,27.86
2022-08-07T16:52:51.513Z,27.71
2022-08-07T16:54:39.551Z,27.58
2022-08-07T16:58:02.868Z,27.54
2022-08-07T17:00:05.727Z,27.47
2022-08-07T17:02:52.942Z,27.43
2022-08-07T17:06:02.154Z,27.29
2022-08-07T17:07:55.088Z,27.20
2022-08-07T17:10:32.672Z,27.16
2022-08-07T17:12:48.034Z,27.18
2022-08-07T17:15:06.018Z,27.17
2022-08-07T17:17:22.591Z,27.11
2022-08-07T17:20:01.664Z,27.02
2022-08-07T17:22:07.144Z,27.00
2022-08-07T17:24:37.222Z,26.98
2022-08-07T17:26:53.898Z,26.90
2022-08-07T17:30:16.121Z,26.91
2022-08-07T17:32:03.293Z,26.91
2022-08-07T17:34:34.700Z,26.82
2022-08-07T17:36:57.463Z,26.76
2022-08-07T17:39:10.418Z,26.72
2022-08-07T17:42:02.122Z,26.66
2022-08-07T17:44:02.835Z,26.63
2022-08-07T17:46:34.606Z,26.66
2022-08-07T17:48:58.469Z,26.63
2022-08-07T17:51:11.462Z,26.59
2022-08-07T17:54:01.729Z,26.57
2022-08-07T17:56:06.393Z,26.49
2022-08-07T17:58:29.901Z,26.46
2022-08-07T18:00:49.106Z,26.42
2022-08-07T18:03:00.968Z,26.39
2022-08-07T18:05:22.201Z,26.37
2022-08-07T18:07:34.615Z,26.33
2022-08-07T18:10:05.277Z,26.31
2022-08-07T18:12:19.919Z,26.27
2022-08-07T18:14:44.933Z,26.27
2022-08-07T18:16:57.430Z,26.23
2022-08-07T18:21:09.469Z,26.19
2022-08-07T18:22:03.562Z,26.14
2022-08-07T18:24:33.827Z,26.11
2022-08-07T18:27:02.438Z,26.11
2022-08-07T18:30:06.026Z,26.07
2022-08-07T18:31:56.243Z,26.02
2022-08-07T18:34:37.086Z,25.96
2022-08-07T18:37:09.624Z,25.92
2022-08-07T18:40:05.169Z,25.84
2022-08-07T18:41:57.761Z,25.80
2022-08-07T18:44:14.084Z,25.75
2022-08-07T18:46:27.337Z,25.72
2022-08-07T18:50:31.820Z,25.68
2022-08-07T18:52:37.841Z,25.65
2022-08-07T18:54:05.839Z,25.59
2022-08-07T18:56:40.570Z,25.55
2022-08-07T18:59:47.276Z,25.53
2022-08-07T19:02:19.154Z,25.49
2022-08-07T19:04:29.628Z,25.45
2022-08-07T19:06:49.418Z,25.41
2022-08-07T19:09:09.343Z,25.39
2022-08-07T19:12:04.566Z,25.34
2022-08-07T19:14:19.804Z,25.29
2022-08-07T19:17:00.544Z,25.26
2022-08-07T19:19:05.200Z,25.22
2022-08-07T19:21:47.951Z,25.20
2022-08-07T19:23:58.586Z,25.15
2022-08-07T19:26:23.394Z,25.13
2022-08-07T19:30:54.480Z,25.08
2022-08-07T19:31:41.708Z,25.04
2022-08-07T19:33:43.494Z,24.98
2022-08-07T19:36:02.339Z,24.93
2022-08-07T19:38:15.910Z,24.90
2022-08-07T19:40:31.810Z,24.84
2022-08-07T19:42:45.920Z,24.82
2022-08-07T19:44:52.138Z,24.79
2022-08-07T19:47:07.527Z,24.77
2022-08-07T19:49:19.750Z,24.73
2022-08-07T19:51:52.293Z,24.70
2022-08-07T19:54:31.809Z,24.68
2022-08-07T19:57:52.241Z,24.65
2022-08-07T19:59:01.425Z,24.63
2022-08-07T20:01:09.559Z,24.62
2022-08-07T20:03:35.486Z,24.62
2022-08-07T20:06:01.103Z,24.59
2022-08-07T20:08:11.529Z,24.58
2022-08-07T20:10:36.398Z,24.57
2022-08-07T20:12:49.581Z,24.54
2022-08-07T20:14:58.870Z,24.51
2022-08-07T20:17:06.960Z,24.52
2022-08-07T20:19:14.414Z,24.48
2022-08-07T20:21:22.530Z,24.42
2022-08-07T20:23:41.581Z,24.36
2022-08-07T20:25:50.902Z,24.28
2022-08-07T20:28:03.576Z,24.20
2022-08-07T20:30:14.555Z,24.08
2022-08-07T20:32:39.768Z,23.99
2022-08-07T20:34:51.186Z,23.83
2022-08-07T20:36:59.355Z,23.75
2022-08-07T20:39:31.109Z,23.66
2022-08-07T20:41:40.342Z,23.58
2022-08-07T20:43:47.542Z,23.52
2022-08-07T20:46:27.011Z,23.47
2022-08-07T20:48:29.708Z,23.40
2022-08-07T20:50:37.102Z,23.39
2022-08-07T20:52:51.646Z,23.37
2022-08-07T20:54:59.323Z,23.34
2022-08-07T20:57:10.345Z,23.34
2022-08-07T21:00:04.439Z,23.34
2022-08-07T21:01:55.086Z,23.30
2022-08-07T21:04:22.840Z,23.23
2022-08-07T21:06:31.418Z,23.20
2022-08-07T21:08:41.006Z,23.18
2022-08-07T21:10:47.460Z,23.16
2022-08-07T21:12:57.678Z,23.14
2022-08-07T21:15:08.108Z,23.13
2022-08-07T21:18:02.189Z,23.14
2022-08-07T21:19:51.233Z,23.13
2022-08-07T21:22:09.763Z,23.14
2022-08-07T21:24:26.731Z,23.10
2022-08-07T21:26:46.617Z,23.07
2022-08-07T21:28:58.267Z,23.01
2022-08-07T21:31:12.060Z,22.95
2022-08-07T21:33:38.296Z,22.93
2022-08-07T21:36:06.089Z,22.88
2022-08-07T21:38:27.922Z,22.83
2022-08-07T21:40:39.688Z,22.80
2022-08-07T21:42:53.875Z,22.75
2022-08-07T21:45:30.766Z,22.71
2022-08-07T21:47:38.788Z,22.65
2022-08-07T21:50:03.064Z,22.57
2022-08-07T21:52:13.062Z,22.54
2022-08-07T21:54:30.410Z,22.53
2022-08-07T21:56:49.105Z,22.53
2022-08-07T21:59:02.222Z,22.52
2022-08-07T22:01:15.746Z,22.48
2022-08-07T22:03:31.080Z,22.44
2022-08-07T22:05:49.819Z,22.41
2022-08-07T22:07:58.878Z,22.29
2022-08-07T22:10:08.583Z,22.25
2022-08-07T22:12:17.740Z,22.20
2022-08-07T22:14:34.622Z,22.22
2022-08-07T22:16:47.823Z,22.23
2022-08-07T22:19:01.240Z,22.11
2022-08-07T22:21:19.085Z,22.07
2022-08-07T22:23:29.454Z,22.00
2022-08-07T22:25:42.432Z,21.92
2022-08-07T22:28:29.575Z,21.88
2022-08-07T22:30:21.088Z,21.76
2022-08-07T22:32:35.615Z,21.68
2022-08-07T22:34:53.183Z,21.54
2022-08-07T22:37:12.526Z,21.36
2022-08-07T22:39:25.854Z,21.30
2022-08-07T22:42:03.099Z,21.25
2022-08-07T22:44:06.163Z,21.15
2022-08-07T22:47:02.190Z,21.13
2022-08-07T22:49:19.239Z,21.08
2022-08-07T22:51:49.016Z,21.01
2022-08-07T22:54:14.907Z,20.95
2022-08-07T22:56:30.840Z,20.93
2022-08-07T22:59:14.774Z,20.87
2022-08-07T23:02:07.219Z,20.77
2022-08-07T23:04:30.681Z,20.73
2022-08-07T23:06:53.708Z,20.72
2022-08-07T23:10:00.742Z,20.70
2022-08-07T23:12:00.369Z,20.69
2022-08-07T23:14:25.563Z,20.66
2022-08-07T23:16:54.759Z,20.66
2022-08-07T23:19:19.466Z,20.65
2022-08-07T23:21:52.283Z,20.61
2022-08-07T23:24:20.159Z,20.62
2022-08-07T23:26:28.847Z,20.61
2022-08-07T23:28:56.397Z,20.61
2022-08-07T23:31:18.776Z,20.60
2022-08-07T23:34:34.420Z,20.54
2022-08-07T23:36:36.945Z,20.49
2022-08-07T23:38:58.366Z,20.47
2022-08-07T23:41:19.329Z,20.44
2022-08-07T23:43:40.389Z,20.43
2022-08-07T23:46:03.691Z,20.33
2022-08-07T23:48:34.224Z,20.29
2022-08-07T23:50:43.944Z,20.30
2022-08-07T23:53:05.506Z,20.28
2022-08-07T23:55:53.601Z,20.30
2022-08-07T23:57:55.725Z,20.27
